Key West, FL

11:37 AM EST on November 21, 2014 (GMT -0500)
Big Coppitt Key Gulfside | Change Station
CLOSE
Current Station
Personal Weather Station
Location: Key West, FL
Elevation: 31 ft
Nearby Weather Stations

Elev 31 ft 24.60 °N, 81.67 °W | Updated 7 minutes ago

Overcast
Overcast
70.9 °F
Feels Like 70.9 °F
N
19.1
Wind Variable Wind from East

Today
High -- | Low -- °F
--% Chance of Precip.
Yesterday
High -- | Low -- °F
Precip. -- in
6:46 AM 5:37 PM
Waning Crescent, 1% visible
Pressure 30.13 in
Visibility 10.0 miles
Clouds Mostly Cloudy 800 ft
Overcast 1000 ft
Dew Point 69 °F
Humidity 94%
Rainfall 0.10 in
Snow Depth Not available.
UV 2 out of 12
Pollen 2.70 out of 12
Air Quality Not available.
Flu Activity Not available.
METAR KNQX 211553Z 04012KT 10SM BKN008 OVC010 22/20 A3013 RMK AO2 RAE10 SLP202 P0000 T02220200 $

More Conditions Fewer Conditions

Pressure 30.13 in
Visibility 10.0 miles
Clouds Mostly Cloudy 800 ft
Overcast 1000 ft
Dew Point 69 °F
Humidity 94%
Rainfall 0.10 in
Snow Depth Not available.
UV 2 out of 12
Pollen 2.70 out of 12
Air Quality Not available.
Flu Activity Not available.
METAR KNQX 211553Z 04012KT 10SM BKN008 OVC010 22/20 A3013 RMK AO2 RAE10 SLP202 P0000 T02220200 $

More Conditions Fewer Conditions

Nowcast | as of 10:29 am EST on November 21, 2014

Through noon EST...an area of showers south of the Florida Keys will continue to affect the Florida Keys as it moves slowly to the north. Periods of moderate to heavy rainfall...especially along the middle and Upper Keys...will cause reduction in visibility...and gusty winds up to 30 mph.

×

10-Day Weather Forecast

Almanac

Astronomy

Nov. 21, 2014 Rise Set
Actual Time
Civil Twilight
Nautical Twilight
Astronomical Twilight
Moon
Length of Visible Light
Length of Day
Tomorrow will be .
, % of the Moon is Illuminated

Today's Extremes

State Highs State Lows

Community

WunderPhotos

Upload Photos

1,772,685 photos uploaded!

WunderBlogs® & News

Nearby

Air Quality

  Air Quality AQ Index Pollutant
Not available.

Snow Depth

Station Depth Elevation

Earthquake Activity

City Distance Mag. Time & Date
Minimum magnitude displayed is 2.5.

Coastal Water Temperatures

Place Temperature

Nearby Weather Stations